sensor_id;sensor_type;location;lat;lon;timestamp;P1;durP1;ratioP1;P2;durP2;ratioP2
21000;SDS011;10658;50.920;12.238;2023-02-21T00:05:55;3.35;;;2.00;;
21000;SDS011;10658;50.920;12.238;2023-02-21T00:10:15;2.60;;;1.30;;
21000;SDS011;10658;50.920;12.238;2023-02-21T00:14:36;3.08;;;1.88;;
21000;SDS011;10658;50.920;12.238;2023-02-21T00:18:56;3.50;;;2.30;;
21000;SDS011;10658;50.920;12.238;2023-02-21T00:23:20;4.85;;;1.98;;
21000;SDS011;10658;50.920;12.238;2023-02-21T00:27:43;3.88;;;1.80;;
21000;SDS011;10658;50.920;12.238;2023-02-21T00:32:04;4.95;;;2.10;;
21000;SDS011;10658;50.920;12.238;2023-02-21T00:36:25;3.42;;;1.33;;
21000;SDS011;10658;50.920;12.238;2023-02-21T00:40:45;3.20;;;1.77;;
21000;SDS011;10658;50.920;12.238;2023-02-21T00:45:04;4.05;;;1.45;;
21000;SDS011;10658;50.920;12.238;2023-02-21T00:49:47;2.00;;;1.35;;
21000;SDS011;10658;50.920;12.238;2023-02-21T00:54:08;1.13;;;0.98;;
21000;SDS011;10658;50.920;12.238;2023-02-21T00:58:29;1.83;;;1.50;;
21000;SDS011;10658;50.920;12.238;2023-02-21T01:07:35;1.75;;;1.45;;
21000;SDS011;10658;50.920;12.238;2023-02-21T01:11:55;2.22;;;1.30;;
21000;SDS011;10658;50.920;12.238;2023-02-21T01:16:15;3.47;;;1.50;;
21000;SDS011;10658;50.920;12.238;2023-02-21T01:20:35;2.63;;;2.05;;
21000;SDS011;10658;50.920;12.238;2023-02-21T01:24:56;3.55;;;2.08;;
21000;SDS011;10658;50.920;12.238;2023-02-21T01:29:15;4.82;;;1.58;;
21000;SDS011;10658;50.920;12.238;2023-02-21T01:38:58;4.13;;;2.33;;
21000;SDS011;10658;50.920;12.238;2023-02-21T01:43:21;2.97;;;2.00;;
21000;SDS011;10658;50.920;12.238;2023-02-21T01:47:44;4.05;;;2.05;;
21000;SDS011;10658;50.920;12.238;2023-02-21T01:52:05;4.45;;;2.10;;
21000;SDS011;10658;50.920;12.238;2023-02-21T01:56:27;5.93;;;1.77;;
21000;SDS011;10658;50.920;12.238;2023-02-21T02:01:16;2.67;;;1.67;;
21000;SDS011;10658;50.920;12.238;2023-02-21T02:05:47;3.72;;;2.20;;
21000;SDS011;10658;50.920;12.238;2023-02-21T02:10:11;3.45;;;2.00;;
21000;SDS011;10658;50.920;12.238;2023-02-21T02:24:10;2.83;;;2.35;;
21000;SDS011;10658;50.920;12.238;2023-02-21T02:37:59;5.20;;;1.85;;
21000;SDS011;10658;50.920;12.238;2023-02-21T02:46:35;2.38;;;1.83;;
21000;SDS011;10658;50.920;12.238;2023-02-21T02:50:53;3.85;;;2.65;;
21000;SDS011;10658;50.920;12.238;2023-02-21T02:59:43;5.00;;;2.10;;
21000;SDS011;10658;50.920;12.238;2023-02-21T03:03:50;4.07;;;2.10;;
21000;SDS011;10658;50.920;12.238;2023-02-21T03:08:16;3.75;;;1.95;;
21000;SDS011;10658;50.920;12.238;2023-02-21T03:16:53;3.30;;;2.10;;
21000;SDS011;10658;50.920;12.238;2023-02-21T03:21:03;3.78;;;2.25;;
21000;SDS011;10658;50.920;12.238;2023-02-21T03:25:09;3.28;;;2.60;;
21000;SDS011;10658;50.920;12.238;2023-02-21T03:29:15;3.70;;;2.42;;
21000;SDS011;10658;50.920;12.238;2023-02-21T03:33:19;3.28;;;2.30;;
21000;SDS011;10658;50.920;12.238;2023-02-21T03:37:33;3.70;;;2.28;;
21000;SDS011;10658;50.920;12.238;2023-02-21T03:41:35;3.50;;;2.60;;
21000;SDS011;10658;50.920;12.238;2023-02-21T03:45:41;5.95;;;2.60;;
21000;SDS011;10658;50.920;12.238;2023-02-21T03:49:51;5.32;;;2.85;;
21000;SDS011;10658;50.920;12.238;2023-02-21T03:53:56;5.50;;;2.80;;
21000;SDS011;10658;50.920;12.238;2023-02-21T03:58:06;3.80;;;2.63;;
21000;SDS011;10658;50.920;12.238;2023-02-21T04:02:10;3.97;;;2.83;;
21000;SDS011;10658;50.920;12.238;2023-02-21T04:06:35;4.68;;;2.75;;
21000;SDS011;10658;50.920;12.238;2023-02-21T04:10:38;4.97;;;2.83;;
21000;SDS011;10658;50.920;12.238;2023-02-21T04:14:43;5.05;;;2.90;;
21000;SDS011;10658;50.920;12.238;2023-02-21T04:18:46;6.53;;;3.70;;
21000;SDS011;10658;50.920;12.238;2023-02-21T04:22:51;6.15;;;3.50;;
21000;SDS011;10658;50.920;12.238;2023-02-21T04:26:53;7.15;;;3.33;;
21000;SDS011;10658;50.920;12.238;2023-02-21T04:30:59;6.53;;;3.90;;
21000;SDS011;10658;50.920;12.238;2023-02-21T04:35:02;7.18;;;4.22;;
21000;SDS011;10658;50.920;12.238;2023-02-21T04:39:09;6.40;;;3.78;;
21000;SDS011;10658;50.920;12.238;2023-02-21T04:43:13;8.13;;;3.90;;
21000;SDS011;10658;50.920;12.238;2023-02-21T04:47:15;4.47;;;3.05;;
21000;SDS011;10658;50.920;12.238;2023-02-21T04:51:17;6.93;;;3.90;;
21000;SDS011;10658;50.920;12.238;2023-02-21T04:55:24;8.95;;;3.92;;
21000;SDS011;10658;50.920;12.238;2023-02-21T04:59:27;8.35;;;4.95;;
21000;SDS011;10658;50.920;12.238;2023-02-21T05:03:29;8.75;;;3.90;;
21000;SDS011;10658;50.920;12.238;2023-02-21T05:07:31;6.88;;;3.67;;
21000;SDS011;10658;50.920;12.238;2023-02-21T05:11:33;6.20;;;3.70;;
21000;SDS011;10658;50.920;12.238;2023-02-21T05:15:36;8.40;;;4.35;;
21000;SDS011;10658;50.920;12.238;2023-02-21T05:19:38;6.93;;;4.10;;
21000;SDS011;10658;50.920;12.238;2023-02-21T05:23:45;5.45;;;3.78;;
21000;SDS011;10658;50.920;12.238;2023-02-21T05:28:00;9.07;;;4.70;;
21000;SDS011;10658;50.920;12.238;2023-02-21T05:32:02;7.95;;;4.20;;
21000;SDS011;10658;50.920;12.238;2023-02-21T05:36:05;7.35;;;4.28;;
21000;SDS011;10658;50.920;12.238;2023-02-21T05:40:08;7.50;;;3.90;;
21000;SDS011;10658;50.920;12.238;2023-02-21T05:44:11;9.43;;;5.20;;
21000;SDS011;10658;50.920;12.238;2023-02-21T05:48:13;10.07;;;4.80;;
21000;SDS011;10658;50.920;12.238;2023-02-21T05:52:15;8.88;;;4.95;;
21000;SDS011;10658;50.920;12.238;2023-02-21T05:56:17;7.32;;;4.18;;
21000;SDS011;10658;50.920;12.238;2023-02-21T06:00:25;12.50;;;4.85;;
21000;SDS011;10658;50.920;12.238;2023-02-21T06:09:24;6.70;;;4.15;;
21000;SDS011;10658;50.920;12.238;2023-02-21T06:13:35;11.60;;;5.63;;
21000;SDS011;10658;50.920;12.238;2023-02-21T06:17:38;11.52;;;5.22;;
21000;SDS011;10658;50.920;12.238;2023-02-21T06:21:40;9.80;;;5.15;;
21000;SDS011;10658;50.920;12.238;2023-02-21T06:25:51;9.48;;;4.85;;
21000;SDS011;10658;50.920;12.238;2023-02-21T06:30:00;7.85;;;4.50;;
21000;SDS011;10658;50.920;12.238;2023-02-21T06:34:03;6.88;;;4.60;;
21000;SDS011;10658;50.920;12.238;2023-02-21T06:38:06;7.28;;;3.35;;
21000;SDS011;10658;50.920;12.238;2023-02-21T06:42:11;7.18;;;4.07;;
21000;SDS011;10658;50.920;12.238;2023-02-21T06:46:15;5.50;;;3.95;;
21000;SDS011;10658;50.920;12.238;2023-02-21T06:50:17;10.82;;;4.78;;
21000;SDS011;10658;50.920;12.238;2023-02-21T06:54:19;8.80;;;5.28;;
21000;SDS011;10658;50.920;12.238;2023-02-21T06:58:25;10.00;;;4.95;;
21000;SDS011;10658;50.920;12.238;2023-02-21T07:02:26;7.28;;;3.67;;
21000;SDS011;10658;50.920;12.238;2023-02-21T07:06:31;7.40;;;4.25;;
21000;SDS011;10658;50.920;12.238;2023-02-21T07:10:33;7.43;;;5.00;;
21000;SDS011;10658;50.920;12.238;2023-02-21T07:14:35;10.77;;;5.45;;
21000;SDS011;10658;50.920;12.238;2023-02-21T07:18:36;7.03;;;3.95;;
21000;SDS011;10658;50.920;12.238;2023-02-21T07:22:38;6.22;;;3.65;;
21000;SDS011;10658;50.920;12.238;2023-02-21T07:26:40;8.18;;;3.80;;
21000;SDS011;10658;50.920;12.238;2023-02-21T07:30:41;7.63;;;4.50;;
21000;SDS011;10658;50.920;12.238;2023-02-21T07:34:43;6.45;;;3.83;;
21000;SDS011;10658;50.920;12.238;2023-02-21T07:38:44;7.97;;;4.15;;
21000;SDS011;10658;50.920;12.238;2023-02-21T07:42:47;8.88;;;4.35;;
21000;SDS011;10658;50.920;12.238;2023-02-21T07:46:49;9.57;;;4.50;;
21000;SDS011;10658;50.920;12.238;2023-02-21T07:50:50;7.55;;;4.05;;
21000;SDS011;10658;50.920;12.238;2023-02-21T07:54:52;6.20;;;3.20;;
21000;SDS011;10658;50.920;12.238;2023-02-21T07:58:54;9.32;;;5.25;;
21000;SDS011;10658;50.920;12.238;2023-02-21T08:02:55;12.68;;;4.97;;
21000;SDS011;10658;50.920;12.238;2023-02-21T08:07:01;12.20;;;5.53;;
21000;SDS011;10658;50.920;12.238;2023-02-21T08:11:04;8.75;;;5.68;;
21000;SDS011;10658;50.920;12.238;2023-02-21T08:15:05;9.75;;;4.80;;
21000;SDS011;10658;50.920;12.238;2023-02-21T08:19:07;10.77;;;5.85;;
21000;SDS011;10658;50.920;12.238;2023-02-21T08:23:12;8.70;;;5.47;;
21000;SDS011;10658;50.920;12.238;2023-02-21T08:27:14;9.95;;;5.85;;
21000;SDS011;10658;50.920;12.238;2023-02-21T08:31:15;10.00;;;5.20;;
21000;SDS011;10658;50.920;12.238;2023-02-21T08:35:18;10.52;;;6.32;;
21000;SDS011;10658;50.920;12.238;2023-02-21T08:39:19;11.48;;;5.80;;
21000;SDS011;10658;50.920;12.238;2023-02-21T08:43:21;9.68;;;5.78;;
21000;SDS011;10658;50.920;12.238;2023-02-21T08:47:22;10.60;;;6.05;;
21000;SDS011;10658;50.920;12.238;2023-02-21T08:51:26;10.98;;;4.75;;
21000;SDS011;10658;50.920;12.238;2023-02-21T08:55:28;6.85;;;4.40;;
21000;SDS011;10658;50.920;12.238;2023-02-21T08:59:33;9.68;;;5.35;;
21000;SDS011;10658;50.920;12.238;2023-02-21T09:03:40;10.95;;;5.35;;
21000;SDS011;10658;50.920;12.238;2023-02-21T09:07:41;7.35;;;4.30;;
21000;SDS011;10658;50.920;12.238;2023-02-21T09:11:44;7.82;;;4.05;;
21000;SDS011;10658;50.920;12.238;2023-02-21T09:15:49;9.20;;;4.28;;
21000;SDS011;10658;50.920;12.238;2023-02-21T09:19:51;9.13;;;4.43;;
21000;SDS011;10658;50.920;12.238;2023-02-21T09:23:53;6.88;;;3.72;;
21000;SDS011;10658;50.920;12.238;2023-02-21T09:27:59;7.75;;;4.50;;
21000;SDS011;10658;50.920;12.238;2023-02-21T09:32:02;6.07;;;4.15;;
21000;SDS011;10658;50.920;12.238;2023-02-21T09:36:08;6.88;;;4.13;;
21000;SDS011;10658;50.920;12.238;2023-02-21T09:44:45;6.28;;;3.85;;
21000;SDS011;10658;50.920;12.238;2023-02-21T09:48:48;6.38;;;4.25;;
21000;SDS011;10658;50.920;12.238;2023-02-21T09:52:51;6.93;;;4.20;;
21000;SDS011;10658;50.920;12.238;2023-02-21T09:56:57;9.20;;;4.03;;
21000;SDS011;10658;50.920;12.238;2023-02-21T10:01:02;8.63;;;4.05;;
21000;SDS011;10658;50.920;12.238;2023-02-21T10:05:26;8.20;;;4.72;;
21000;SDS011;10658;50.920;12.238;2023-02-21T10:09:36;6.53;;;4.00;;
21000;SDS011;10658;50.920;12.238;2023-02-21T10:13:40;8.25;;;3.90;;
21000;SDS011;10658;50.920;12.238;2023-02-21T10:19:01;5.97;;;3.17;;
21000;SDS011;10658;50.920;12.238;2023-02-21T10:22:22;7.90;;;3.33;;
21000;SDS011;10658;50.920;12.238;2023-02-21T10:26:33;6.70;;;3.58;;
21000;SDS011;10658;50.920;12.238;2023-02-21T10:30:38;7.75;;;3.70;;
21000;SDS011;10658;50.920;12.238;2023-02-21T10:34:40;4.53;;;2.75;;
21000;SDS011;10658;50.920;12.238;2023-02-21T10:38:54;9.30;;;3.72;;
21000;SDS011;10658;50.920;12.238;2023-02-21T10:43:09;5.97;;;3.40;;
21000;SDS011;10658;50.920;12.238;2023-02-21T11:02:42;5.40;;;3.22;;
21000;SDS011;10658;50.920;12.238;2023-02-21T11:06:51;5.72;;;2.75;;
21000;SDS011;10658;50.920;12.238;2023-02-21T11:10:58;4.45;;;2.17;;
21000;SDS011;10658;50.920;12.238;2023-02-21T11:19:06;5.57;;;2.70;;
21000;SDS011;10658;50.920;12.238;2023-02-21T11:23:33;5.32;;;2.80;;
21000;SDS011;10658;50.920;12.238;2023-02-21T11:27:41;5.22;;;2.47;;
21000;SDS011;10658;50.920;12.238;2023-02-21T11:32:12;3.78;;;2.35;;
21000;SDS011;10658;50.920;12.238;2023-02-21T11:36:27;2.28;;;1.98;;
21000;SDS011;10658;50.920;12.238;2023-02-21T11:40:32;3.20;;;2.30;;
21000;SDS011;10658;50.920;12.238;2023-02-21T11:45:14;5.50;;;2.53;;
21000;SDS011;10658;50.920;12.238;2023-02-21T11:53:41;3.78;;;2.47;;
21000;SDS011;10658;50.920;12.238;2023-02-21T11:57:59;4.18;;;2.55;;
21000;SDS011;10658;50.920;12.238;2023-02-21T12:29:15;3.22;;;1.85;;
21000;SDS011;10658;50.920;12.238;2023-02-21T12:33:29;4.40;;;2.45;;
21000;SDS011;10658;50.920;12.238;2023-02-21T12:50:40;5.25;;;2.75;;
21000;SDS011;10658;50.920;12.238;2023-02-21T12:59:21;4.75;;;2.35;;
21000;SDS011;10658;50.920;12.238;2023-02-21T13:04:14;4.45;;;2.35;;
21000;SDS011;10658;50.920;12.238;2023-02-21T13:08:05;3.53;;;1.95;;
21000;SDS011;10658;50.920;12.238;2023-02-21T13:12:35;3.22;;;1.73;;
21000;SDS011;10658;50.920;12.238;2023-02-21T13:16:38;2.67;;;2.08;;
21000;SDS011;10658;50.920;12.238;2023-02-21T13:20:41;4.45;;;1.75;;
21000;SDS011;10658;50.920;12.238;2023-02-21T13:28:56;3.00;;;1.63;;
21000;SDS011;10658;50.920;12.238;2023-02-21T13:32:59;3.80;;;2.22;;
21000;SDS011;10658;50.920;12.238;2023-02-21T13:37:02;3.83;;;2.25;;
21000;SDS011;10658;50.920;12.238;2023-02-21T13:41:07;4.53;;;2.50;;
21000;SDS011;10658;50.920;12.238;2023-02-21T13:45:18;3.97;;;1.45;;
21000;SDS011;10658;50.920;12.238;2023-02-21T13:49:41;3.45;;;1.88;;
21000;SDS011;10658;50.920;12.238;2023-02-21T14:07:10;3.35;;;2.00;;
21000;SDS011;10658;50.920;12.238;2023-02-21T14:15:37;4.32;;;2.17;;
21000;SDS011;10658;50.920;12.238;2023-02-21T14:19:47;4.13;;;2.55;;
21000;SDS011;10658;50.920;12.238;2023-02-21T14:23:55;3.38;;;1.98;;
21000;SDS011;10658;50.920;12.238;2023-02-21T14:27:59;4.68;;;2.50;;
21000;SDS011;10658;50.920;12.238;2023-02-21T14:32:24;4.95;;;2.40;;
21000;SDS011;10658;50.920;12.238;2023-02-21T14:42:43;4.15;;;2.60;;
21000;SDS011;10658;50.920;12.238;2023-02-21T14:47:11;2.95;;;2.03;;
21000;SDS011;10658;50.920;12.238;2023-02-21T15:01:28;6.00;;;2.75;;
21000;SDS011;10658;50.920;12.238;2023-02-21T15:10:21;4.22;;;2.70;;
21000;SDS011;10658;50.920;12.238;2023-02-21T15:14:50;4.30;;;2.65;;
21000;SDS011;10658;50.920;12.238;2023-02-21T15:19:02;4.35;;;2.83;;
21000;SDS011;10658;50.920;12.238;2023-02-21T15:27:21;5.47;;;3.40;;
21000;SDS011;10658;50.920;12.238;2023-02-21T15:31:22;3.05;;;2.67;;
21000;SDS011;10658;50.920;12.238;2023-02-21T15:35:33;6.43;;;3.42;;
21000;SDS011;10658;50.920;12.238;2023-02-21T15:39:42;4.43;;;2.92;;
21000;SDS011;10658;50.920;12.238;2023-02-21T15:43:55;6.25;;;3.50;;
21000;SDS011;10658;50.920;12.238;2023-02-21T15:48:03;6.88;;;3.75;;
21000;SDS011;10658;50.920;12.238;2023-02-21T15:52:05;5.82;;;3.45;;
21000;SDS011;10658;50.920;12.238;2023-02-21T15:56:21;5.07;;;3.15;;
21000;SDS011;10658;50.920;12.238;2023-02-21T16:00:38;4.95;;;3.35;;
21000;SDS011;10658;50.920;12.238;2023-02-21T16:09:32;4.45;;;2.90;;
21000;SDS011;10658;50.920;12.238;2023-02-21T16:19:01;4.13;;;2.72;;
21000;SDS011;10658;50.920;12.238;2023-02-21T16:27:25;3.95;;;3.15;;
21000;SDS011;10658;50.920;12.238;2023-02-21T16:31:28;5.38;;;3.53;;
21000;SDS011;10658;50.920;12.238;2023-02-21T16:40:19;7.25;;;4.70;;
21000;SDS011;10658;50.920;12.238;2023-02-21T16:44:25;5.88;;;3.58;;
21000;SDS011;10658;50.920;12.238;2023-02-21T16:48:29;5.28;;;3.20;;
21000;SDS011;10658;50.920;12.238;2023-02-21T16:57:12;7.18;;;4.32;;
21000;SDS011;10658;50.920;12.238;2023-02-21T17:06:36;4.18;;;3.30;;
21000;SDS011;10658;50.920;12.238;2023-02-21T17:14:58;7.00;;;4.00;;
21000;SDS011;10658;50.920;12.238;2023-02-21T17:18:59;5.78;;;3.92;;
21000;SDS011;10658;50.920;12.238;2023-02-21T17:23:06;8.43;;;5.03;;
21000;SDS011;10658;50.920;12.238;2023-02-21T17:27:08;8.63;;;6.00;;
21000;SDS011;10658;50.920;12.238;2023-02-21T17:31:13;5.30;;;3.67;;
21000;SDS011;10658;50.920;12.238;2023-02-21T17:35:21;4.32;;;2.88;;
21000;SDS011;10658;50.920;12.238;2023-02-21T17:39:26;6.07;;;3.42;;
21000;SDS011;10658;50.920;12.238;2023-02-21T17:43:34;7.53;;;4.68;;
21000;SDS011;10658;50.920;12.238;2023-02-21T17:47:40;4.35;;;3.15;;
21000;SDS011;10658;50.920;12.238;2023-02-21T17:51:42;4.53;;;2.92;;
21000;SDS011;10658;50.920;12.238;2023-02-21T17:55:49;6.88;;;3.25;;
21000;SDS011;10658;50.920;12.238;2023-02-21T17:59:51;3.75;;;2.70;;
21000;SDS011;10658;50.920;12.238;2023-02-21T18:03:57;4.00;;;3.15;;
21000;SDS011;10658;50.920;12.238;2023-02-21T18:08:00;4.63;;;3.53;;
21000;SDS011;10658;50.920;12.238;2023-02-21T18:12:03;5.28;;;3.00;;
21000;SDS011;10658;50.920;12.238;2023-02-21T18:16:09;7.88;;;4.25;;
21000;SDS011;10658;50.920;12.238;2023-02-21T18:20:12;6.28;;;3.83;;
21000;SDS011;10658;50.920;12.238;2023-02-21T18:24:17;3.53;;;3.22;;
21000;SDS011;10658;50.920;12.238;2023-02-21T18:28:21;7.13;;;4.85;;
21000;SDS011;10658;50.920;12.238;2023-02-21T18:32:22;7.63;;;4.85;;
21000;SDS011;10658;50.920;12.238;2023-02-21T18:36:27;5.88;;;3.92;;
21000;SDS011;10658;50.920;12.238;2023-02-21T18:40:29;9.77;;;5.40;;
21000;SDS011;10658;50.920;12.238;2023-02-21T18:44:35;12.25;;;6.75;;
21000;SDS011;10658;50.920;12.238;2023-02-21T18:48:47;17.88;;;13.40;;
21000;SDS011;10658;50.920;12.238;2023-02-21T18:53:39;6.65;;;4.50;;
21000;SDS011;10658;50.920;12.238;2023-02-21T19:20:00;5.90;;;3.33;;
21000;SDS011;10658;50.920;12.238;2023-02-21T19:24:07;7.50;;;3.40;;
21000;SDS011;10658;50.920;12.238;2023-02-21T19:28:08;5.35;;;3.05;;
21000;SDS011;10658;50.920;12.238;2023-02-21T19:32:15;3.53;;;2.58;;
21000;SDS011;10658;50.920;12.238;2023-02-21T19:36:20;6.03;;;3.00;;
21000;SDS011;10658;50.920;12.238;2023-02-21T19:40:22;3.92;;;2.83;;
21000;SDS011;10658;50.920;12.238;2023-02-21T19:44:29;5.25;;;3.28;;
21000;SDS011;10658;50.920;12.238;2023-02-21T19:48:31;6.95;;;3.63;;
21000;SDS011;10658;50.920;12.238;2023-02-21T19:52:33;6.40;;;3.20;;
21000;SDS011;10658;50.920;12.238;2023-02-21T19:56:34;4.18;;;3.20;;
21000;SDS011;10658;50.920;12.238;2023-02-21T20:00:36;6.55;;;3.92;;
21000;SDS011;10658;50.920;12.238;2023-02-21T20:04:41;5.10;;;3.30;;
21000;SDS011;10658;50.920;12.238;2023-02-21T20:08:47;5.60;;;3.03;;
21000;SDS011;10658;50.920;12.238;2023-02-21T20:12:48;7.15;;;4.43;;
21000;SDS011;10658;50.920;12.238;2023-02-21T20:16:50;7.95;;;4.18;;
21000;SDS011;10658;50.920;12.238;2023-02-21T20:20:54;6.65;;;4.03;;
21000;SDS011;10658;50.920;12.238;2023-02-21T20:24:56;5.20;;;3.42;;
21000;SDS011;10658;50.920;12.238;2023-02-21T20:28:59;6.57;;;3.88;;
21000;SDS011;10658;50.920;12.238;2023-02-21T20:33:00;5.30;;;3.92;;
21000;SDS011;10658;50.920;12.238;2023-02-21T20:37:03;11.20;;;7.25;;
21000;SDS011;10658;50.920;12.238;2023-02-21T20:41:09;13.52;;;8.15;;
21000;SDS011;10658;50.920;12.238;2023-02-21T20:50:37;16.60;;;10.75;;
21000;SDS011;10658;50.920;12.238;2023-02-21T20:54:42;14.43;;;8.68;;
21000;SDS011;10658;50.920;12.238;2023-02-21T21:04:28;8.15;;;4.70;;
21000;SDS011;10658;50.920;12.238;2023-02-21T21:08:37;6.28;;;3.42;;
21000;SDS011;10658;50.920;12.238;2023-02-21T21:12:39;4.40;;;3.40;;
21000;SDS011;10658;50.920;12.238;2023-02-21T21:16:41;4.28;;;3.55;;
21000;SDS011;10658;50.920;12.238;2023-02-21T21:20:43;6.47;;;3.67;;
21000;SDS011;10658;50.920;12.238;2023-02-21T21:24:48;5.85;;;3.92;;
21000;SDS011;10658;50.920;12.238;2023-02-21T21:28:51;6.45;;;3.65;;
21000;SDS011;10658;50.920;12.238;2023-02-21T21:32:54;5.18;;;3.67;;
21000;SDS011;10658;50.920;12.238;2023-02-21T21:36:58;5.03;;;3.20;;
21000;SDS011;10658;50.920;12.238;2023-02-21T21:41:05;5.22;;;3.70;;
21000;SDS011;10658;50.920;12.238;2023-02-21T21:45:13;6.43;;;3.20;;
21000;SDS011;10658;50.920;12.238;2023-02-21T21:49:23;5.80;;;4.22;;
21000;SDS011;10658;50.920;12.238;2023-02-21T21:53:40;5.22;;;3.83;;
21000;SDS011;10658;50.920;12.238;2023-02-21T21:57:43;6.13;;;3.67;;
21000;SDS011;10658;50.920;12.238;2023-02-21T22:01:48;6.07;;;4.35;;
21000;SDS011;10658;50.920;12.238;2023-02-21T22:06:15;5.75;;;3.58;;
21000;SDS011;10658;50.920;12.238;2023-02-21T22:10:17;6.43;;;3.85;;
21000;SDS011;10658;50.920;12.238;2023-02-21T22:14:21;5.75;;;3.60;;
21000;SDS011;10658;50.920;12.238;2023-02-21T22:18:24;7.25;;;3.55;;
21000;SDS011;10658;50.920;12.238;2023-02-21T22:22:29;5.70;;;3.55;;
21000;SDS011;10658;50.920;12.238;2023-02-21T22:26:30;5.43;;;3.90;;
21000;SDS011;10658;50.920;12.238;2023-02-21T22:30:35;5.72;;;3.88;;
21000;SDS011;10658;50.920;12.238;2023-02-21T22:34:37;6.45;;;4.00;;
21000;SDS011;10658;50.920;12.238;2023-02-21T23:00:15;6.20;;;3.50;;
21000;SDS011;10658;50.920;12.238;2023-02-21T23:04:22;5.75;;;3.30;;
21000;SDS011;10658;50.920;12.238;2023-02-21T23:08:28;5.65;;;3.45;;
21000;SDS011;10658;50.920;12.238;2023-02-21T23:12:31;4.63;;;3.17;;
21000;SDS011;10658;50.920;12.238;2023-02-21T23:16:33;3.97;;;3.03;;
21000;SDS011;10658;50.920;12.238;2023-02-21T23:20:35;5.85;;;3.25;;
21000;SDS011;10658;50.920;12.238;2023-02-21T23:24:37;6.05;;;3.65;;
21000;SDS011;10658;50.920;12.238;2023-02-21T23:33:45;4.53;;;3.33;;
21000;SDS011;10658;50.920;12.238;2023-02-21T23:37:54;6.35;;;3.88;;
21000;SDS011;10658;50.920;12.238;2023-02-21T23:42:00;4.90;;;3.38;;
21000;SDS011;10658;50.920;12.238;2023-02-21T23:46:03;5.00;;;3.83;;
21000;SDS011;10658;50.920;12.238;2023-02-21T23:50:08;5.13;;;3.40;;
21000;SDS011;10658;50.920;12.238;2023-02-21T23:54:17;5.38;;;3.80;;
21000;SDS011;10658;50.920;12.238;2023-02-21T23:58:22;10.00;;;5.47;;
